KBKE/BKE METAR and TAF weather

Enter ICAO airport designator
Station Type Date Time Source
KBKE METAR 2021/09/16 10:53 UTC NOAA

KBKE 161053Z AUTO 32010KT 10SM CLR 07/M01 A3004 RMK AO2 SLP158 T00671006


Station Type Date Time Source
KBKE Decoded METAR 2021/09/16 10:53 UTC NOAA

BAKER MUNICIPAL AIRPORT, OR, United States (KBKE) 44-50N 117-49W 1024M
Sep 16, 2021 - 06:53 AM EDT / 2021.09.16 1053 UTC
Wind: from the NW (320 degrees) at 12 MPH (10 KT):0
Visibility: 10 mile(s):0
Sky conditions: clear
Temperature: 44.1 F (6.7 C)
Dew Point: 30.9 F (-0.6 C)
Relative Humidity: 59%
Pressure (altimeter): 30.04 in. Hg (1017 hPa)
ob: KBKE 161053Z AUTO 32010KT 10SM CLR 07/M01 A3004 RMK AO2 SLP158 T00671006
cycle: 11

Station Type Date Time Source
KBKE TAF 2021/09/16 12:39 UTC NOAA

TAF KBKE 161135Z 1612/1712 VRB06KT P6SM BKN200
FM161600 33010G20KT P6SM SKC
FM162200 33011KT P6SM SKC
FM170200 VRB05KT P6SM SKC

Example: see airport list